sensor_id;sensor_type;location;lat;lon;timestamp;P1;durP1;ratioP1;P2;durP2;ratioP2
912;SDS011;443;51.448;7.028;2022-08-01T00:01:48;9.53;;;5.50;;
912;SDS011;443;51.448;7.028;2022-08-01T00:04:14;7.90;;;4.20;;
912;SDS011;443;51.448;7.028;2022-08-01T00:06:41;6.70;;;6.00;;
912;SDS011;443;51.448;7.028;2022-08-01T00:09:08;7.10;;;5.83;;
912;SDS011;443;51.448;7.028;2022-08-01T00:11:35;5.83;;;5.13;;
912;SDS011;443;51.448;7.028;2022-08-01T00:14:03;6.20;;;5.20;;
912;SDS011;443;51.448;7.028;2022-08-01T00:16:30;7.13;;;5.60;;
912;SDS011;443;51.448;7.028;2022-08-01T00:18:57;7.30;;;6.50;;
912;SDS011;443;51.448;7.028;2022-08-01T00:21:24;7.87;;;6.30;;
912;SDS011;443;51.448;7.028;2022-08-01T00:23:50;10.30;;;6.40;;
912;SDS011;443;51.448;7.028;2022-08-01T00:26:17;14.40;;;6.60;;
912;SDS011;443;51.448;7.028;2022-08-01T00:28:44;10.73;;;6.73;;
912;SDS011;443;51.448;7.028;2022-08-01T00:31:12;7.63;;;6.47;;
912;SDS011;443;51.448;7.028;2022-08-01T00:33:39;9.57;;;7.13;;
912;SDS011;443;51.448;7.028;2022-08-01T00:36:06;7.53;;;5.63;;
912;SDS011;443;51.448;7.028;2022-08-01T00:38:33;11.67;;;8.97;;
912;SDS011;443;51.448;7.028;2022-08-01T00:41:00;8.23;;;5.33;;
912;SDS011;443;51.448;7.028;2022-08-01T00:43:26;8.60;;;7.30;;
912;SDS011;443;51.448;7.028;2022-08-01T00:45:53;8.53;;;6.97;;
912;SDS011;443;51.448;7.028;2022-08-01T00:48:21;8.37;;;6.00;;
912;SDS011;443;51.448;7.028;2022-08-01T00:50:48;11.63;;;8.43;;
912;SDS011;443;51.448;7.028;2022-08-01T00:53:15;11.07;;;7.37;;
912;SDS011;443;51.448;7.028;2022-08-01T00:55:42;8.80;;;7.20;;
912;SDS011;443;51.448;7.028;2022-08-01T00:58:09;9.50;;;7.43;;
912;SDS011;443;51.448;7.028;2022-08-01T01:00:36;11.47;;;9.00;;
912;SDS011;443;51.448;7.028;2022-08-01T01:03:03;12.13;;;8.40;;
912;SDS011;443;51.448;7.028;2022-08-01T01:05:33;11.40;;;6.90;;
912;SDS011;443;51.448;7.028;2022-08-01T01:08:17;9.10;;;6.73;;
912;SDS011;443;51.448;7.028;2022-08-01T01:10:51;14.00;;;7.37;;
912;SDS011;443;51.448;7.028;2022-08-01T01:13:23;7.43;;;6.40;;
912;SDS011;443;51.448;7.028;2022-08-01T01:15:58;12.27;;;8.60;;
912;SDS011;443;51.448;7.028;2022-08-01T01:18:29;10.80;;;7.20;;
912;SDS011;443;51.448;7.028;2022-08-01T01:21:03;11.90;;;8.33;;
912;SDS011;443;51.448;7.028;2022-08-01T01:23:46;8.57;;;7.73;;
912;SDS011;443;51.448;7.028;2022-08-01T01:26:31;10.90;;;8.37;;
912;SDS011;443;51.448;7.028;2022-08-01T01:29:10;11.67;;;9.73;;
912;SDS011;443;51.448;7.028;2022-08-01T01:31:43;11.67;;;8.03;;
912;SDS011;443;51.448;7.028;2022-08-01T01:34:15;11.43;;;7.40;;
912;SDS011;443;51.448;7.028;2022-08-01T01:36:44;14.13;;;7.87;;
912;SDS011;443;51.448;7.028;2022-08-01T01:39:13;11.57;;;7.10;;
912;SDS011;443;51.448;7.028;2022-08-01T01:41:42;15.33;;;7.73;;
912;SDS011;443;51.448;7.028;2022-08-01T01:44:12;9.77;;;7.30;;
912;SDS011;443;51.448;7.028;2022-08-01T01:46:41;8.50;;;6.40;;
912;SDS011;443;51.448;7.028;2022-08-01T01:49:08;16.17;;;10.10;;
912;SDS011;443;51.448;7.028;2022-08-01T01:51:37;11.30;;;6.53;;
912;SDS011;443;51.448;7.028;2022-08-01T01:54:06;14.33;;;8.73;;
912;SDS011;443;51.448;7.028;2022-08-01T01:56:34;12.83;;;9.07;;
912;SDS011;443;51.448;7.028;2022-08-01T01:59:15;13.47;;;9.60;;
912;SDS011;443;51.448;7.028;2022-08-01T02:01:45;14.43;;;7.87;;
912;SDS011;443;51.448;7.028;2022-08-01T02:04:14;11.60;;;8.70;;
912;SDS011;443;51.448;7.028;2022-08-01T02:06:42;11.40;;;8.67;;
912;SDS011;443;51.448;7.028;2022-08-01T02:09:11;17.70;;;11.00;;
912;SDS011;443;51.448;7.028;2022-08-01T02:11:42;19.00;;;11.83;;
912;SDS011;443;51.448;7.028;2022-08-01T02:14:11;18.97;;;11.20;;
912;SDS011;443;51.448;7.028;2022-08-01T02:16:41;17.20;;;9.87;;
912;SDS011;443;51.448;7.028;2022-08-01T02:19:10;15.63;;;10.17;;
912;SDS011;443;51.448;7.028;2022-08-01T02:21:38;13.80;;;9.13;;
912;SDS011;443;51.448;7.028;2022-08-01T02:24:10;12.07;;;8.00;;
912;SDS011;443;51.448;7.028;2022-08-01T02:26:41;11.37;;;8.43;;
912;SDS011;443;51.448;7.028;2022-08-01T02:29:13;14.13;;;8.90;;
912;SDS011;443;51.448;7.028;2022-08-01T02:31:45;12.77;;;10.00;;
912;SDS011;443;51.448;7.028;2022-08-01T02:34:15;12.17;;;8.70;;
912;SDS011;443;51.448;7.028;2022-08-01T02:36:44;13.23;;;8.70;;
912;SDS011;443;51.448;7.028;2022-08-01T02:39:13;12.30;;;8.60;;
912;SDS011;443;51.448;7.028;2022-08-01T02:41:43;11.97;;;8.97;;
912;SDS011;443;51.448;7.028;2022-08-01T02:44:15;15.30;;;8.97;;
912;SDS011;443;51.448;7.028;2022-08-01T02:46:51;11.20;;;8.13;;
912;SDS011;443;51.448;7.028;2022-08-01T02:49:22;11.40;;;8.40;;
912;SDS011;443;51.448;7.028;2022-08-01T02:51:51;11.50;;;7.50;;
912;SDS011;443;51.448;7.028;2022-08-01T02:54:21;18.73;;;8.23;;
912;SDS011;443;51.448;7.028;2022-08-01T02:56:49;15.40;;;10.40;;
912;SDS011;443;51.448;7.028;2022-08-01T02:59:18;14.37;;;9.93;;
912;SDS011;443;51.448;7.028;2022-08-01T03:01:51;12.50;;;9.20;;
912;SDS011;443;51.448;7.028;2022-08-01T03:04:20;16.67;;;10.93;;
912;SDS011;443;51.448;7.028;2022-08-01T03:06:48;17.00;;;10.37;;
912;SDS011;443;51.448;7.028;2022-08-01T03:09:15;14.27;;;10.03;;
912;SDS011;443;51.448;7.028;2022-08-01T03:11:44;16.87;;;11.87;;
912;SDS011;443;51.448;7.028;2022-08-01T03:14:12;15.30;;;9.80;;
912;SDS011;443;51.448;7.028;2022-08-01T03:16:41;16.37;;;10.43;;
912;SDS011;443;51.448;7.028;2022-08-01T03:19:12;19.90;;;12.47;;
912;SDS011;443;51.448;7.028;2022-08-01T03:21:42;17.43;;;13.13;;
912;SDS011;443;51.448;7.028;2022-08-01T03:24:10;18.50;;;11.03;;
912;SDS011;443;51.448;7.028;2022-08-01T03:26:39;17.03;;;11.80;;
912;SDS011;443;51.448;7.028;2022-08-01T03:29:08;20.30;;;13.33;;
912;SDS011;443;51.448;7.028;2022-08-01T03:31:39;17.33;;;12.23;;
912;SDS011;443;51.448;7.028;2022-08-01T03:34:09;16.57;;;11.40;;
912;SDS011;443;51.448;7.028;2022-08-01T03:36:40;16.83;;;12.60;;
912;SDS011;443;51.448;7.028;2022-08-01T03:39:12;20.37;;;11.70;;
912;SDS011;443;51.448;7.028;2022-08-01T03:41:43;18.30;;;12.07;;
912;SDS011;443;51.448;7.028;2022-08-01T03:44:15;16.37;;;11.70;;
912;SDS011;443;51.448;7.028;2022-08-01T03:46:47;19.17;;;10.50;;
912;SDS011;443;51.448;7.028;2022-08-01T03:49:19;14.73;;;10.50;;
912;SDS011;443;51.448;7.028;2022-08-01T03:51:49;15.50;;;10.67;;
912;SDS011;443;51.448;7.028;2022-08-01T03:54:21;24.10;;;10.93;;
912;SDS011;443;51.448;7.028;2022-08-01T03:56:51;13.77;;;11.00;;
912;SDS011;443;51.448;7.028;2022-08-01T03:59:18;15.77;;;10.20;;
912;SDS011;443;51.448;7.028;2022-08-01T04:01:46;17.73;;;11.40;;
912;SDS011;443;51.448;7.028;2022-08-01T04:04:14;16.93;;;11.63;;
912;SDS011;443;51.448;7.028;2022-08-01T04:06:43;14.57;;;9.30;;
912;SDS011;443;51.448;7.028;2022-08-01T04:09:10;16.37;;;10.30;;
912;SDS011;443;51.448;7.028;2022-08-01T04:11:38;16.33;;;10.17;;
912;SDS011;443;51.448;7.028;2022-08-01T04:14:05;14.43;;;9.90;;
912;SDS011;443;51.448;7.028;2022-08-01T04:16:31;18.03;;;11.37;;
912;SDS011;443;51.448;7.028;2022-08-01T04:18:59;14.67;;;9.00;;
912;SDS011;443;51.448;7.028;2022-08-01T04:21:26;9.87;;;7.80;;
912;SDS011;443;51.448;7.028;2022-08-01T04:23:59;11.83;;;8.20;;
912;SDS011;443;51.448;7.028;2022-08-01T04:26:33;12.20;;;8.70;;
912;SDS011;443;51.448;7.028;2022-08-01T04:29:02;11.80;;;8.67;;
912;SDS011;443;51.448;7.028;2022-08-01T04:31:31;11.10;;;8.33;;
912;SDS011;443;51.448;7.028;2022-08-01T04:33:59;11.23;;;7.60;;
912;SDS011;443;51.448;7.028;2022-08-01T04:36:28;10.97;;;8.23;;
912;SDS011;443;51.448;7.028;2022-08-01T04:39:00;12.90;;;8.20;;
912;SDS011;443;51.448;7.028;2022-08-01T04:41:29;12.77;;;7.57;;
912;SDS011;443;51.448;7.028;2022-08-01T04:43:57;16.07;;;9.53;;
912;SDS011;443;51.448;7.028;2022-08-01T04:46:25;9.97;;;7.73;;
912;SDS011;443;51.448;7.028;2022-08-01T04:48:54;14.67;;;10.43;;
912;SDS011;443;51.448;7.028;2022-08-01T04:51:22;23.23;;;8.30;;
912;SDS011;443;51.448;7.028;2022-08-01T04:53:49;17.30;;;9.30;;
912;SDS011;443;51.448;7.028;2022-08-01T04:56:18;20.87;;;9.60;;
912;SDS011;443;51.448;7.028;2022-08-01T04:58:46;15.03;;;10.70;;
912;SDS011;443;51.448;7.028;2022-08-01T05:01:13;14.43;;;9.60;;
912;SDS011;443;51.448;7.028;2022-08-01T05:03:40;11.83;;;7.80;;
912;SDS011;443;51.448;7.028;2022-08-01T05:06:07;14.77;;;9.00;;
912;SDS011;443;51.448;7.028;2022-08-01T05:08:34;16.37;;;8.23;;
912;SDS011;443;51.448;7.028;2022-08-01T05:11:01;9.70;;;7.13;;
912;SDS011;443;51.448;7.028;2022-08-01T05:13:30;9.60;;;6.80;;
912;SDS011;443;51.448;7.028;2022-08-01T05:15:57;12.63;;;9.53;;
912;SDS011;443;51.448;7.028;2022-08-01T05:18:23;13.33;;;10.57;;
912;SDS011;443;51.448;7.028;2022-08-01T05:20:51;12.70;;;8.57;;
912;SDS011;443;51.448;7.028;2022-08-01T05:23:18;14.23;;;9.30;;
912;SDS011;443;51.448;7.028;2022-08-01T05:25:45;10.73;;;7.30;;
912;SDS011;443;51.448;7.028;2022-08-01T05:28:13;12.70;;;8.80;;
912;SDS011;443;51.448;7.028;2022-08-01T05:30:42;12.13;;;8.33;;
912;SDS011;443;51.448;7.028;2022-08-01T05:33:09;14.57;;;9.07;;
912;SDS011;443;51.448;7.028;2022-08-01T05:35:36;13.87;;;8.40;;
912;SDS011;443;51.448;7.028;2022-08-01T05:38:03;13.37;;;9.77;;
912;SDS011;443;51.448;7.028;2022-08-01T05:40:29;10.50;;;7.57;;
912;SDS011;443;51.448;7.028;2022-08-01T05:42:56;14.60;;;8.07;;
912;SDS011;443;51.448;7.028;2022-08-01T05:45:23;10.90;;;7.20;;
912;SDS011;443;51.448;7.028;2022-08-01T05:47:51;13.70;;;8.87;;
912;SDS011;443;51.448;7.028;2022-08-01T05:50:18;13.23;;;8.60;;
912;SDS011;443;51.448;7.028;2022-08-01T05:52:45;11.27;;;7.77;;
912;SDS011;443;51.448;7.028;2022-08-01T05:57:41;18.40;;;7.67;;
912;SDS011;443;51.448;7.028;2022-08-01T06:00:08;12.87;;;7.70;;
912;SDS011;443;51.448;7.028;2022-08-01T06:02:39;13.37;;;8.47;;
912;SDS011;443;51.448;7.028;2022-08-01T06:05:09;12.37;;;8.40;;
912;SDS011;443;51.448;7.028;2022-08-01T06:07:36;11.90;;;7.53;;
912;SDS011;443;51.448;7.028;2022-08-01T06:10:05;9.97;;;6.40;;
912;SDS011;443;51.448;7.028;2022-08-01T06:12:32;10.83;;;7.07;;
912;SDS011;443;51.448;7.028;2022-08-01T06:14:59;10.47;;;7.20;;
912;SDS011;443;51.448;7.028;2022-08-01T06:17:26;12.67;;;6.57;;
912;SDS011;443;51.448;7.028;2022-08-01T06:19:53;12.83;;;6.17;;
912;SDS011;443;51.448;7.028;2022-08-01T06:22:22;8.63;;;5.77;;
912;SDS011;443;51.448;7.028;2022-08-01T06:24:48;12.50;;;8.23;;
912;SDS011;443;51.448;7.028;2022-08-01T06:27:15;9.93;;;6.10;;
912;SDS011;443;51.448;7.028;2022-08-01T06:29:42;11.47;;;6.70;;
912;SDS011;443;51.448;7.028;2022-08-01T06:32:09;14.47;;;6.97;;
912;SDS011;443;51.448;7.028;2022-08-01T06:34:36;7.50;;;5.07;;
912;SDS011;443;51.448;7.028;2022-08-01T06:37:03;6.83;;;4.90;;
912;SDS011;443;51.448;7.028;2022-08-01T06:39:31;10.80;;;6.27;;
912;SDS011;443;51.448;7.028;2022-08-01T06:41:58;11.57;;;7.57;;
912;SDS011;443;51.448;7.028;2022-08-01T06:44:25;8.67;;;5.33;;
912;SDS011;443;51.448;7.028;2022-08-01T06:46:52;16.60;;;6.60;;
912;SDS011;443;51.448;7.028;2022-08-01T06:49:18;9.30;;;6.20;;
912;SDS011;443;51.448;7.028;2022-08-01T06:51:45;10.57;;;6.97;;
912;SDS011;443;51.448;7.028;2022-08-01T06:54:12;8.57;;;5.73;;
912;SDS011;443;51.448;7.028;2022-08-01T06:56:40;8.87;;;5.47;;
912;SDS011;443;51.448;7.028;2022-08-01T06:59:07;12.13;;;8.47;;
912;SDS011;443;51.448;7.028;2022-08-01T07:01:34;13.57;;;7.60;;
912;SDS011;443;51.448;7.028;2022-08-01T07:04:01;11.57;;;8.07;;
912;SDS011;443;51.448;7.028;2022-08-01T07:06:28;9.83;;;7.83;;
912;SDS011;443;51.448;7.028;2022-08-01T07:08:55;12.33;;;7.73;;
912;SDS011;443;51.448;7.028;2022-08-01T07:11:23;8.73;;;6.53;;
912;SDS011;443;51.448;7.028;2022-08-01T07:13:51;11.73;;;6.17;;
912;SDS011;443;51.448;7.028;2022-08-01T07:16:18;8.63;;;5.47;;
912;SDS011;443;51.448;7.028;2022-08-01T07:18:45;12.20;;;7.10;;
912;SDS011;443;51.448;7.028;2022-08-01T07:21:12;8.33;;;6.73;;
912;SDS011;443;51.448;7.028;2022-08-01T07:23:38;11.27;;;6.80;;
912;SDS011;443;51.448;7.028;2022-08-01T07:26:05;13.33;;;7.47;;
912;SDS011;443;51.448;7.028;2022-08-01T07:28:32;9.07;;;6.13;;
912;SDS011;443;51.448;7.028;2022-08-01T07:31:00;11.23;;;8.63;;
912;SDS011;443;51.448;7.028;2022-08-01T07:33:27;8.73;;;6.43;;
912;SDS011;443;51.448;7.028;2022-08-01T07:35:54;9.50;;;6.73;;
912;SDS011;443;51.448;7.028;2022-08-01T07:38:21;10.37;;;8.80;;
912;SDS011;443;51.448;7.028;2022-08-01T07:40:48;12.00;;;7.90;;
912;SDS011;443;51.448;7.028;2022-08-01T07:43:14;12.60;;;9.10;;
912;SDS011;443;51.448;7.028;2022-08-01T07:45:41;11.50;;;7.23;;
912;SDS011;443;51.448;7.028;2022-08-01T07:48:10;6.27;;;4.80;;
912;SDS011;443;51.448;7.028;2022-08-01T07:50:37;6.23;;;4.73;;
912;SDS011;443;51.448;7.028;2022-08-01T07:53:03;7.57;;;5.47;;
912;SDS011;443;51.448;7.028;2022-08-01T07:55:30;6.83;;;5.33;;
912;SDS011;443;51.448;7.028;2022-08-01T07:57:57;7.53;;;5.67;;
912;SDS011;443;51.448;7.028;2022-08-01T08:00:24;9.67;;;7.37;;
912;SDS011;443;51.448;7.028;2022-08-01T08:02:52;9.13;;;7.00;;
912;SDS011;443;51.448;7.028;2022-08-01T08:05:20;7.43;;;6.70;;
912;SDS011;443;51.448;7.028;2022-08-01T08:07:47;7.93;;;6.80;;
912;SDS011;443;51.448;7.028;2022-08-01T08:10:14;7.80;;;6.13;;
912;SDS011;443;51.448;7.028;2022-08-01T08:12:41;6.97;;;5.63;;
912;SDS011;443;51.448;7.028;2022-08-01T08:15:09;4.13;;;3.73;;
912;SDS011;443;51.448;7.028;2022-08-01T08:17:36;4.83;;;3.60;;
912;SDS011;443;51.448;7.028;2022-08-01T08:20:03;3.40;;;3.07;;
912;SDS011;443;51.448;7.028;2022-08-01T08:22:33;4.20;;;2.77;;
912;SDS011;443;51.448;7.028;2022-08-01T08:24:59;3.83;;;2.90;;
912;SDS011;443;51.448;7.028;2022-08-01T08:27:26;5.17;;;3.40;;
912;SDS011;443;51.448;7.028;2022-08-01T08:29:53;6.83;;;5.00;;
912;SDS011;443;51.448;7.028;2022-08-01T08:32:20;4.70;;;4.27;;
912;SDS011;443;51.448;7.028;2022-08-01T08:34:47;6.80;;;4.63;;
912;SDS011;443;51.448;7.028;2022-08-01T08:37:14;7.77;;;5.37;;
912;SDS011;443;51.448;7.028;2022-08-01T08:39:43;8.40;;;5.10;;
912;SDS011;443;51.448;7.028;2022-08-01T08:42:10;6.50;;;4.60;;
912;SDS011;443;51.448;7.028;2022-08-01T08:44:37;5.40;;;4.23;;
912;SDS011;443;51.448;7.028;2022-08-01T08:47:06;7.53;;;5.37;;
912;SDS011;443;51.448;7.028;2022-08-01T08:49:34;7.63;;;5.17;;
912;SDS011;443;51.448;7.028;2022-08-01T08:52:02;6.57;;;4.90;;
912;SDS011;443;51.448;7.028;2022-08-01T08:54:31;6.03;;;4.00;;
912;SDS011;443;51.448;7.028;2022-08-01T08:57:00;4.83;;;3.10;;
912;SDS011;443;51.448;7.028;2022-08-01T08:59:27;4.10;;;2.30;;
912;SDS011;443;51.448;7.028;2022-08-01T09:01:55;3.40;;;3.10;;
912;SDS011;443;51.448;7.028;2022-08-01T09:04:22;4.87;;;2.90;;
912;SDS011;443;51.448;7.028;2022-08-01T09:06:50;5.17;;;4.00;;
912;SDS011;443;51.448;7.028;2022-08-01T09:09:17;4.53;;;3.23;;
912;SDS011;443;51.448;7.028;2022-08-01T09:11:44;4.23;;;3.70;;
912;SDS011;443;51.448;7.028;2022-08-01T09:14:13;6.00;;;5.13;;
912;SDS011;443;51.448;7.028;2022-08-01T09:16:47;3.87;;;3.30;;
912;SDS011;443;51.448;7.028;2022-08-01T09:19:27;3.70;;;2.70;;
912;SDS011;443;51.448;7.028;2022-08-01T09:22:01;3.33;;;2.20;;
912;SDS011;443;51.448;7.028;2022-08-01T09:24:31;2.50;;;2.30;;
912;SDS011;443;51.448;7.028;2022-08-01T09:26:59;3.00;;;2.70;;
912;SDS011;443;51.448;7.028;2022-08-01T09:29:28;2.43;;;2.07;;
912;SDS011;443;51.448;7.028;2022-08-01T09:31:56;2.00;;;1.53;;
912;SDS011;443;51.448;7.028;2022-08-01T09:34:25;2.57;;;2.27;;
912;SDS011;443;51.448;7.028;2022-08-01T09:36:53;5.83;;;2.70;;
912;SDS011;443;51.448;7.028;2022-08-01T09:39:22;3.50;;;3.20;;
912;SDS011;443;51.448;7.028;2022-08-01T09:41:50;3.60;;;3.00;;
912;SDS011;443;51.448;7.028;2022-08-01T09:44:17;3.37;;;3.00;;
912;SDS011;443;51.448;7.028;2022-08-01T09:46:50;3.20;;;2.90;;
912;SDS011;443;51.448;7.028;2022-08-01T09:49:28;3.47;;;3.17;;
912;SDS011;443;51.448;7.028;2022-08-01T09:51:57;3.00;;;2.20;;
912;SDS011;443;51.448;7.028;2022-08-01T09:54:29;2.13;;;1.70;;
912;SDS011;443;51.448;7.028;2022-08-01T09:57:07;1.90;;;1.40;;
912;SDS011;443;51.448;7.028;2022-08-01T09:59:38;3.77;;;2.97;;
912;SDS011;443;51.448;7.028;2022-08-01T10:02:08;4.10;;;2.97;;
912;SDS011;443;51.448;7.028;2022-08-01T10:04:45;2.80;;;2.60;;
912;SDS011;443;51.448;7.028;2022-08-01T10:07:13;2.53;;;2.23;;
912;SDS011;443;51.448;7.028;2022-08-01T10:09:41;3.30;;;3.00;;
912;SDS011;443;51.448;7.028;2022-08-01T10:12:09;3.90;;;3.47;;
912;SDS011;443;51.448;7.028;2022-08-01T10:14:38;3.73;;;2.80;;
912;SDS011;443;51.448;7.028;2022-08-01T10:17:06;6.00;;;3.17;;
912;SDS011;443;51.448;7.028;2022-08-01T10:19:37;2.53;;;2.27;;
912;SDS011;443;51.448;7.028;2022-08-01T10:22:07;3.67;;;2.80;;
912;SDS011;443;51.448;7.028;2022-08-01T10:24:35;2.47;;;2.03;;
912;SDS011;443;51.448;7.028;2022-08-01T10:27:04;2.40;;;1.97;;
912;SDS011;443;51.448;7.028;2022-08-01T10:29:34;3.03;;;1.93;;
912;SDS011;443;51.448;7.028;2022-08-01T10:32:04;4.30;;;2.40;;
912;SDS011;443;51.448;7.028;2022-08-01T10:34:32;2.63;;;2.07;;
912;SDS011;443;51.448;7.028;2022-08-01T10:37:00;3.27;;;2.93;;
912;SDS011;443;51.448;7.028;2022-08-01T10:39:28;1.90;;;1.40;;
912;SDS011;443;51.448;7.028;2022-08-01T10:41:56;4.50;;;1.80;;
912;SDS011;443;51.448;7.028;2022-08-01T10:44:23;2.40;;;2.00;;
912;SDS011;443;51.448;7.028;2022-08-01T10:46:52;1.80;;;1.17;;
912;SDS011;443;51.448;7.028;2022-08-01T10:49:24;2.57;;;2.10;;
912;SDS011;443;51.448;7.028;2022-08-01T10:51:56;1.70;;;1.23;;
912;SDS011;443;51.448;7.028;2022-08-01T10:54:23;2.60;;;1.47;;
912;SDS011;443;51.448;7.028;2022-08-01T10:56:51;1.60;;;1.40;;
912;SDS011;443;51.448;7.028;2022-08-01T10:59:21;2.27;;;1.77;;
912;SDS011;443;51.448;7.028;2022-08-01T11:01:55;3.37;;;2.60;;
912;SDS011;443;51.448;7.028;2022-08-01T11:04:31;1.70;;;1.60;;
912;SDS011;443;51.448;7.028;2022-08-01T11:07:05;3.43;;;1.70;;
912;SDS011;443;51.448;7.028;2022-08-01T11:09:40;3.17;;;2.87;;
912;SDS011;443;51.448;7.028;2022-08-01T11:12:09;3.87;;;3.03;;
912;SDS011;443;51.448;7.028;2022-08-01T11:17:42;2.10;;;1.47;;
912;SDS011;443;51.448;7.028;2022-08-01T11:20:13;2.80;;;1.57;;
912;SDS011;443;51.448;7.028;2022-08-01T11:26:08;2.30;;;1.90;;
912;SDS011;443;51.448;7.028;2022-08-01T11:28:36;2.23;;;1.90;;
912;SDS011;443;51.448;7.028;2022-08-01T11:33:53;2.53;;;2.27;;
912;SDS011;443;51.448;7.028;2022-08-01T11:36:20;2.60;;;2.10;;
912;SDS011;443;51.448;7.028;2022-08-01T11:38:48;1.30;;;1.07;;
912;SDS011;443;51.448;7.028;2022-08-01T11:41:38;1.20;;;0.70;;
912;SDS011;443;51.448;7.028;2022-08-01T11:44:05;0.83;;;0.60;;
912;SDS011;443;51.448;7.028;2022-08-01T11:49:25;0.80;;;0.60;;
912;SDS011;443;51.448;7.028;2022-08-01T11:51:57;1.30;;;1.10;;
912;SDS011;443;51.448;7.028;2022-08-01T11:54:28;2.63;;;0.80;;
912;SDS011;443;51.448;7.028;2022-08-01T11:56:58;1.37;;;0.80;;
912;SDS011;443;51.448;7.028;2022-08-01T11:59:26;1.27;;;1.00;;
912;SDS011;443;51.448;7.028;2022-08-01T12:01:53;4.13;;;1.27;;
912;SDS011;443;51.448;7.028;2022-08-01T12:04:20;1.47;;;0.90;;
912;SDS011;443;51.448;7.028;2022-08-01T12:06:47;1.67;;;1.17;;
912;SDS011;443;51.448;7.028;2022-08-01T12:09:14;2.10;;;1.90;;
912;SDS011;443;51.448;7.028;2022-08-01T12:11:43;2.10;;;1.57;;
912;SDS011;443;51.448;7.028;2022-08-01T12:14:16;1.73;;;1.00;;
912;SDS011;443;51.448;7.028;2022-08-01T12:16:50;2.80;;;1.70;;
912;SDS011;443;51.448;7.028;2022-08-01T12:19:19;1.70;;;1.10;;
912;SDS011;443;51.448;7.028;2022-08-01T12:22:06;1.93;;;1.73;;
912;SDS011;443;51.448;7.028;2022-08-01T12:24:34;1.90;;;1.50;;
912;SDS011;443;51.448;7.028;2022-08-01T12:27:02;2.00;;;1.80;;
912;SDS011;443;51.448;7.028;2022-08-01T12:29:32;1.50;;;1.40;;
912;SDS011;443;51.448;7.028;2022-08-01T12:32:00;3.00;;;1.73;;
912;SDS011;443;51.448;7.028;2022-08-01T12:34:27;2.63;;;1.97;;
912;SDS011;443;51.448;7.028;2022-08-01T12:36:55;2.00;;;1.80;;
912;SDS011;443;51.448;7.028;2022-08-01T12:39:28;4.70;;;3.20;;
912;SDS011;443;51.448;7.028;2022-08-01T12:41:56;3.00;;;1.93;;
912;SDS011;443;51.448;7.028;2022-08-01T12:44:23;1.93;;;1.67;;
912;SDS011;443;51.448;7.028;2022-08-01T12:46:51;1.83;;;1.73;;
912;SDS011;443;51.448;7.028;2022-08-01T12:49:18;1.67;;;1.57;;
912;SDS011;443;51.448;7.028;2022-08-01T12:51:45;2.47;;;1.90;;
912;SDS011;443;51.448;7.028;2022-08-01T12:54:12;1.53;;;1.43;;
912;SDS011;443;51.448;7.028;2022-08-01T12:56:39;2.97;;;1.93;;
912;SDS011;443;51.448;7.028;2022-08-01T12:59:19;2.73;;;2.20;;
912;SDS011;443;51.448;7.028;2022-08-01T13:01:47;2.20;;;1.63;;
912;SDS011;443;51.448;7.028;2022-08-01T13:04:15;1.83;;;1.07;;
912;SDS011;443;51.448;7.028;2022-08-01T13:06:42;1.57;;;1.47;;
912;SDS011;443;51.448;7.028;2022-08-01T13:09:09;2.13;;;1.13;;
912;SDS011;443;51.448;7.028;2022-08-01T13:11:38;1.33;;;1.00;;
912;SDS011;443;51.448;7.028;2022-08-01T13:14:06;2.97;;;1.77;;
912;SDS011;443;51.448;7.028;2022-08-01T13:16:34;1.90;;;1.33;;
912;SDS011;443;51.448;7.028;2022-08-01T13:19:12;1.90;;;1.60;;
912;SDS011;443;51.448;7.028;2022-08-01T13:21:46;2.40;;;2.07;;
912;SDS011;443;51.448;7.028;2022-08-01T13:24:24;2.33;;;1.97;;
912;SDS011;443;51.448;7.028;2022-08-01T13:26:52;2.10;;;1.90;;
912;SDS011;443;51.448;7.028;2022-08-01T13:29:28;1.40;;;1.07;;
912;SDS011;443;51.448;7.028;2022-08-01T13:31:57;2.27;;;1.83;;
912;SDS011;443;51.448;7.028;2022-08-01T13:34:30;1.60;;;1.20;;
912;SDS011;443;51.448;7.028;2022-08-01T13:37:00;1.83;;;1.50;;
912;SDS011;443;51.448;7.028;2022-08-01T13:39:28;2.07;;;1.70;;
912;SDS011;443;51.448;7.028;2022-08-01T13:42:07;1.40;;;1.30;;
912;SDS011;443;51.448;7.028;2022-08-01T13:44:34;2.20;;;1.50;;
912;SDS011;443;51.448;7.028;2022-08-01T13:47:02;3.20;;;1.97;;
912;SDS011;443;51.448;7.028;2022-08-01T13:49:29;2.10;;;1.77;;
912;SDS011;443;51.448;7.028;2022-08-01T13:51:56;1.40;;;1.00;;
912;SDS011;443;51.448;7.028;2022-08-01T13:54:24;1.77;;;1.43;;
912;SDS011;443;51.448;7.028;2022-08-01T13:56:52;1.93;;;1.40;;
912;SDS011;443;51.448;7.028;2022-08-01T13:59:19;2.50;;;1.80;;
912;SDS011;443;51.448;7.028;2022-08-01T14:01:46;1.83;;;1.50;;
912;SDS011;443;51.448;7.028;2022-08-01T14:04:13;1.73;;;1.60;;
912;SDS011;443;51.448;7.028;2022-08-01T14:06:40;1.50;;;1.40;;
912;SDS011;443;51.448;7.028;2022-08-01T14:09:07;2.17;;;1.90;;
912;SDS011;443;51.448;7.028;2022-08-01T14:11:35;1.43;;;1.33;;
912;SDS011;443;51.448;7.028;2022-08-01T14:14:02;1.63;;;1.53;;
912;SDS011;443;51.448;7.028;2022-08-01T14:16:29;2.70;;;1.80;;
912;SDS011;443;51.448;7.028;2022-08-01T14:18:56;2.13;;;1.67;;
912;SDS011;443;51.448;7.028;2022-08-01T14:21:23;1.57;;;1.03;;
912;SDS011;443;51.448;7.028;2022-08-01T14:23:50;2.33;;;1.80;;
912;SDS011;443;51.448;7.028;2022-08-01T14:26:16;7.03;;;1.83;;
912;SDS011;443;51.448;7.028;2022-08-01T14:28:44;1.40;;;1.30;;
912;SDS011;443;51.448;7.028;2022-08-01T14:31:11;1.80;;;1.60;;
912;SDS011;443;51.448;7.028;2022-08-01T14:33:38;1.60;;;1.47;;
912;SDS011;443;51.448;7.028;2022-08-01T14:36:05;1.83;;;1.63;;
912;SDS011;443;51.448;7.028;2022-08-01T14:38:32;1.90;;;1.47;;
912;SDS011;443;51.448;7.028;2022-08-01T14:40:59;3.30;;;1.87;;
912;SDS011;443;51.448;7.028;2022-08-01T14:43:28;2.20;;;1.63;;
912;SDS011;443;51.448;7.028;2022-08-01T14:45:58;1.10;;;1.00;;
912;SDS011;443;51.448;7.028;2022-08-01T14:48:24;1.77;;;1.60;;
912;SDS011;443;51.448;7.028;2022-08-01T14:50:51;1.83;;;1.20;;
912;SDS011;443;51.448;7.028;2022-08-01T14:53:18;1.63;;;1.30;;
912;SDS011;443;51.448;7.028;2022-08-01T14:55:46;2.57;;;1.73;;
912;SDS011;443;51.448;7.028;2022-08-01T14:58:12;1.57;;;1.47;;
912;SDS011;443;51.448;7.028;2022-08-01T15:00:39;2.10;;;1.87;;
912;SDS011;443;51.448;7.028;2022-08-01T15:03:08;1.90;;;1.70;;
912;SDS011;443;51.448;7.028;2022-08-01T15:05:34;1.20;;;1.10;;
912;SDS011;443;51.448;7.028;2022-08-01T15:08:02;2.43;;;1.87;;
912;SDS011;443;51.448;7.028;2022-08-01T15:10:30;3.80;;;1.80;;
912;SDS011;443;51.448;7.028;2022-08-01T15:12:57;2.47;;;1.90;;
912;SDS011;443;51.448;7.028;2022-08-01T15:15:25;1.80;;;1.70;;
912;SDS011;443;51.448;7.028;2022-08-01T15:17:51;5.13;;;2.30;;
912;SDS011;443;51.448;7.028;2022-08-01T15:20:20;1.60;;;1.50;;
912;SDS011;443;51.448;7.028;2022-08-01T15:22:47;2.13;;;1.80;;
912;SDS011;443;51.448;7.028;2022-08-01T15:25:13;1.60;;;1.43;;
912;SDS011;443;51.448;7.028;2022-08-01T15:27:40;2.40;;;1.60;;
912;SDS011;443;51.448;7.028;2022-08-01T15:30:08;1.97;;;1.60;;
912;SDS011;443;51.448;7.028;2022-08-01T15:32:35;2.37;;;2.17;;
912;SDS011;443;51.448;7.028;2022-08-01T15:35:03;3.10;;;1.90;;
912;SDS011;443;51.448;7.028;2022-08-01T15:37:32;1.70;;;1.40;;
912;SDS011;443;51.448;7.028;2022-08-01T15:39:59;1.90;;;1.67;;
912;SDS011;443;51.448;7.028;2022-08-01T15:42:26;3.10;;;1.70;;
912;SDS011;443;51.448;7.028;2022-08-01T15:44:53;2.97;;;2.57;;
912;SDS011;443;51.448;7.028;2022-08-01T15:47:20;2.70;;;1.70;;
912;SDS011;443;51.448;7.028;2022-08-01T15:49:46;2.10;;;1.90;;
912;SDS011;443;51.448;7.028;2022-08-01T15:52:13;2.47;;;2.00;;
912;SDS011;443;51.448;7.028;2022-08-01T15:54:41;2.10;;;1.67;;
912;SDS011;443;51.448;7.028;2022-08-01T15:57:08;3.13;;;1.83;;
912;SDS011;443;51.448;7.028;2022-08-01T15:59:35;2.00;;;1.80;;
912;SDS011;443;51.448;7.028;2022-08-01T16:02:02;7.00;;;1.93;;